VAM Template | Vabird

Vabird! Vabird Marcello Mazzieri




 INFORMACIÓN METAR y TAF
METAR FOR CYPR
ADDS - METARS form results

(0515 UTC 21 October 2020)
Data provider http://aviationweather.gov/metar/data/
 
METAR text: CYPR 210500Z AUTO 08003KT 020V090 9SM FEW026 SCT055 04/03 A3013 RMK SLP205
Conditions at: CYPR (PRINCE RUPERT AR, BC, CA) observed 0500 UTC 21 October 2020
Temperature: 4.0°C (39°F)
Dewpoint: 3.0°C (37°F) [RH = 93%]
Pressure (altimeter): 30.13 inches Hg (1020.4 mb)
[Sea-level pressure: 1020.5 mb]
Winds: from the E (80 degrees) at 3 MPH (3 knots; 1.5 m/s)
Visibility: 9 miles (14 km)
Ceiling: at least 12,000 feet AGL
Clouds: few clouds at 2600 feet AGL
scattered clouds at 5500 feet AGL
Weather: no significant weather observed at this time

METAR text: CYPR 210442Z AUTO 08004KT 9SM SCT026 BKN035 04/04 A3013 RMK SLP206
Conditions at: CYPR (PRINCE RUPERT AR, BC, CA) observed 0442 UTC 21 October 2020
Temperature: 4.0°C (39°F)
Dewpoint: 4.0°C (39°F) [RH = 100%]
Pressure (altimeter): 30.13 inches Hg (1020.4 mb)
[Sea-level pressure: 1020.6 mb]
Winds: from the E (80 degrees) at 5 MPH (4 knots; 2.1 m/s)
Visibility: 9 miles (14 km)
Ceiling: 3500 feet AGL
Clouds: scattered clouds at 2600 feet AGL
broken clouds at 3500 feet AGL
Weather: no significant weather observed at this time

METAR text: CYPR 210416Z AUTO 07003KT 010V090 9SM -RA FEW028 BKN033 BKN042 04/04 A3012 RMK SLP202
Conditions at: CYPR (PRINCE RUPERT AR, BC, CA) observed 0416 UTC 21 October 2020
Temperature: 4.0°C (39°F)
Dewpoint: 4.0°C (39°F) [RH = 100%]
Pressure (altimeter): 30.12 inches Hg (1020.1 mb)
[Sea-level pressure: 1020.2 mb]
Winds: from the ENE (70 degrees) at 3 MPH (3 knots; 1.5 m/s)
Visibility: 9 miles (14 km)
Ceiling: 3300 feet AGL
Clouds: few clouds at 2800 feet AGL
broken clouds at 3300 feet AGL
broken clouds at 4200 feet AGL
Weather: -RA  (light rain)

Forecast for: CYPR (PRINCE RUPERT AR, BC, CA)
Text: TAF CYPR 210042Z 2101/2113 VRB03KT P6SM OVC025
Forecast period: 0100 to 0300 UTC 21 October 2020
Forecast type: FROM: standard forecast or significant change
Winds: variable direction winds at 3 MPH (3 knots; 1.5 m/s)
Visibility: 6 or more miles (10+ km)
Ceiling: 2500 feet AGL
Clouds: overcast cloud deck at 2500 feet AGL
Weather: no significant weather forecast for this period
Text: TEMPO 2101/2103 3SM SHRA VCTS BR OVC015CB
Forecast period: 0100 to 0300 UTC 21 October 2020
Forecast type: TEMPORARY: The following changes expected for less than half the time period
Visibility: 3 miles (5 km)
Ceiling: 1500 feet AGL
Clouds: overcast cloud deck at 1500 feet AGL
Weather: SHRA VCTS BR  (rain showers, thunderstorm in vicinity, mist)
Text: FM210300 VRB03KT P6SM FEW008 SCT015 BKN030
Forecast period: 0300 to 1300 UTC 21 October 2020
Forecast type: FROM: standard forecast or significant change
Winds: variable direction winds at 3 MPH (3 knots; 1.5 m/s)
Visibility: 6 or more miles (10+ km)
Ceiling: 3000 feet AGL
Clouds: few clouds at 800 feet AGL
scattered clouds at 1500 feet AGL
broken clouds at 3000 feet AGL
Weather: no significant weather forecast for this period
Text: TEMPO 2103/2113 5SM -SHRA BR SCT008 BKN015 OVC030 RMK FCST BASED ON AUTO OBS. NXT FCST BY 210700Z
Forecast period: 0300 to 1300 UTC 21 October 2020
Forecast type: TEMPORARY: The following changes expected for less than half the time period
Visibility: 5 miles (8 km)
Ceiling: 1500 feet AGL
Clouds: scattered clouds at 800 feet AGL
broken clouds at 1500 feet AGL
overcast cloud deck at 3000 feet AGL
Weather: -SHRA BR  (light rain showers, mist)

 MAPA DE AEROPUERTO

 INFORMACIÓN DE PISTA